Ratcliff, Texas
Current Conditions -  °F | °C
As of 1:55 PM on Tuesday 21 Oct 2014 (Local Time) from KDKR Reporting Station
Clear Clear  
Wind Chill: 82°   Ceiling: Unl
Heat Index: 83°   Visibility: 10mi
Dew Point: 63°   Wind: 6mph
Humidity: 51%   Direction: 40°NE
Pressure: 30.08"   Gusts: NA
Location:  31.39°N, 95.14°W
Report Text: KDKR 211855Z AUTO 04005KT 10SM CLR 28/17 A3008 RMK AO2
Loading
Personal Weather Stations






























Interactive Weather Map
Tropical Storm Tracking
New forecast layout! Learn more

10-Day Weather Forecast

Advertisements
Track Severe Weather on mobile